Time;durP1;ratioP1;P1;durP2;ratioP2;P2;SDS_P1;SDS_P2;PMS_P1;PMS_P2;Temp;Humidity;BMP_temperature;BMP_pressure;BME280_temperature;BME280_humidity;BME280_pressure;Samples;Min_cycle;Max_cycle;Signal;HPM_P1;HPM_P2
2023/09/01 00:01:42;;;;;;;14.02;8.60;;;12.80;99.90;;;;;;5061418;28;20588;-56
2023/09/01 00:04:07;;;;;;;15.23;8.48;;;12.70;99.90;;;;;;5075154;28;20041;-56
2023/09/01 00:06:33;;;;;;;11.32;8.48;;;12.70;99.90;;;;;;5067902;28;20044;-57
2023/09/01 00:08:59;;;;;;;12.70;8.82;;;12.70;99.90;;;;;;5071650;28;20079;-56
2023/09/01 00:11:24;;;;;;;9.50;7.97;;;12.70;99.90;;;;;;5060130;28;20044;-56
2023/09/01 00:13:50;;;;;;;11.75;8.18;;;12.70;99.90;;;;;;5067657;28;20076;-56
2023/09/01 00:16:16;;;;;;;13.73;8.35;;;12.70;99.90;;;;;;5069139;28;20116;-56
2023/09/01 00:18:41;;;;;;;10.05;8.40;;;12.70;99.90;;;;;;5058467;28;20049;-57
2023/09/01 00:21:07;;;;;;;12.00;7.78;;;12.70;99.90;;;;;;5059852;28;20040;-56
2023/09/01 00:23:33;;;;;;;10.32;7.80;;;12.60;99.90;;;;;;5060203;28;20290;-57
2023/09/01 00:25:59;;;;;;;12.50;8.10;;;12.60;99.90;;;;;;5074818;28;20037;-57
2023/09/01 00:28:25;;;;;;;10.93;8.30;;;12.60;99.90;;;;;;5065784;28;20036;-57
2023/09/01 00:30:59;;;;;;;12.40;8.13;;;12.60;99.90;;;;;;5083153;28;20047;-56
2023/09/01 00:33:28;;;;;;;9.80;7.80;;;12.60;99.90;;;;;;5066056;28;20041;-57
2023/09/01 00:35:55;;;;;;;11.52;8.05;;;12.60;99.90;;;;;;5077643;28;20040;-56
2023/09/01 00:38:21;;;;;;;9.63;8.10;;;12.60;99.90;;;;;;5081966;28;20037;-56
2023/09/01 00:40:48;;;;;;;9.85;8.15;;;12.50;99.90;;;;;;5073402;28;20075;-56
2023/09/01 00:43:14;;;;;;;10.70;8.18;;;12.50;99.90;;;;;;5059595;28;20071;-57
2023/09/01 00:45:41;;;;;;;17.38;7.82;;;12.50;99.90;;;;;;5056185;28;20036;-57
2023/09/01 00:48:10;;;;;;;12.93;7.63;;;12.40;99.90;;;;;;5053725;28;20090;-56
2023/09/01 00:50:36;;;;;;;9.23;7.40;;;12.40;99.90;;;;;;5054195;28;20052;-57
2023/09/01 00:53:05;;;;;;;12.13;7.47;;;12.40;99.90;;;;;;5054872;28;20051;-57
2023/09/01 00:55:33;;;;;;;11.63;7.95;;;12.40;99.90;;;;;;5054665;28;20106;-57
2023/09/01 00:58:00;;;;;;;11.95;7.88;;;12.40;99.90;;;;;;5054102;28;20037;-56
2023/09/01 01:00:27;;;;;;;10.55;8.23;;;12.40;99.90;;;;;;5054016;28;20551;-57
2023/09/01 01:02:54;;;;;;;12.82;8.05;;;12.40;99.90;;;;;;5052831;28;20045;-57
2023/09/01 01:05:38;;;;;;;12.88;7.70;;;12.40;99.90;;;;;;5060586;28;20082;-57
2023/09/01 01:08:30;;;;;;;11.73;8.10;;;12.40;99.90;;;;;;5055219;28;20082;-57
2023/09/01 01:11:06;;;;;;;13.13;8.00;;;12.40;99.90;;;;;;5067040;28;20045;-57
2023/09/01 01:13:36;;;;;;;11.48;7.75;;;12.40;99.90;;;;;;5073828;28;20546;-55
2023/09/01 01:16:03;;;;;;;11.05;7.93;;;12.40;99.90;;;;;;5067652;28;20045;-57
2023/09/01 01:18:35;;;;;;;10.57;7.32;;;12.50;99.90;;;;;;5062243;28;20056;-57
2023/09/01 01:21:10;;;;;;;10.00;7.82;;;12.50;99.90;;;;;;5074212;28;20783;-57
2023/09/01 01:23:37;;;;;;;11.67;7.77;;;12.50;99.90;;;;;;5059459;28;20044;-56
2023/09/01 01:26:04;;;;;;;14.82;7.57;;;12.50;99.90;;;;;;5044090;28;20041;-56
2023/09/01 01:28:30;;;;;;;12.63;8.15;;;12.40;99.90;;;;;;5067377;28;20083;-55
2023/09/01 01:30:55;;;;;;;10.82;7.15;;;12.40;99.90;;;;;;5064790;28;20643;-56
2023/09/01 01:33:54;;;;;;;13.27;7.60;;;12.50;99.90;;;;;;5071783;28;20036;-57
2023/09/01 01:36:28;;;;;;;12.80;6.82;;;12.40;99.90;;;;;;5075694;28;20037;-56
2023/09/01 01:38:59;;;;;;;13.00;7.30;;;12.50;99.90;;;;;;5081183;28;20079;-56
2023/09/01 01:41:41;;;;;;;13.50;7.25;;;12.40;99.90;;;;;;5079076;28;20041;-58
2023/09/01 01:44:08;;;;;;;10.05;6.45;;;12.40;99.90;;;;;;5065026;28;20044;-56
2023/09/01 01:46:34;;;;;;;11.05;6.45;;;12.40;99.90;;;;;;5072296;28;20091;-56
2023/09/01 01:49:00;;;;;;;8.60;6.68;;;12.30;99.90;;;;;;5071044;28;20044;-56
2023/09/01 01:51:26;;;;;;;10.05;6.85;;;12.30;99.90;;;;;;5065969;28;20060;-56
2023/09/01 01:53:51;;;;;;;9.18;6.38;;;12.30;99.90;;;;;;5065394;28;20052;-58
2023/09/01 01:56:17;;;;;;;12.27;6.45;;;12.30;99.90;;;;;;5078576;28;20552;-56
2023/09/01 01:58:43;;;;;;;9.02;6.75;;;12.30;99.90;;;;;;5064991;28;20055;-56
2023/09/01 02:01:09;;;;;;;12.85;6.18;;;12.30;99.90;;;;;;5073298;28;20040;-56
2023/09/01 02:03:34;;;;;;;9.70;6.35;;;12.30;99.90;;;;;;5068676;28;20025;-56
2023/09/01 02:06:00;;;;;;;11.90;6.18;;;12.30;99.90;;;;;;5077267;28;20054;-56
2023/09/01 02:08:27;;;;;;;9.57;5.82;;;12.30;99.90;;;;;;5071881;28;20047;-56
2023/09/01 02:10:53;;;;;;;7.60;6.20;;;12.30;99.90;;;;;;5080757;28;20048;-56
2023/09/01 02:13:18;;;;;;;8.65;6.45;;;12.30;99.90;;;;;;5047533;28;20102;-57
2023/09/01 02:15:52;;;;;;;9.10;6.22;;;12.30;99.90;;;;;;5080354;28;20044;-55
2023/09/01 02:18:18;;;;;;;8.85;5.60;;;12.30;99.90;;;;;;5080027;28;20059;-56
2023/09/01 02:20:44;;;;;;;11.70;6.60;;;12.30;99.90;;;;;;5079639;28;20112;-56
2023/09/01 02:23:09;;;;;;;8.68;6.10;;;12.30;99.90;;;;;;5080561;28;20051;-59
2023/09/01 02:25:37;;;;;;;9.05;6.05;;;12.20;99.90;;;;;;5081019;28;20072;-57
2023/09/01 02:28:04;;;;;;;9.20;6.13;;;12.30;99.90;;;;;;5062981;28;20049;-56
2023/09/01 02:30:30;;;;;;;8.38;6.45;;;12.30;99.90;;;;;;5065388;28;20044;-56
2023/09/01 02:32:56;;;;;;;8.60;6.60;;;12.30;99.90;;;;;;5079382;28;20043;-56
2023/09/01 02:35:22;;;;;;;8.95;6.38;;;12.30;99.90;;;;;;5064536;28;20040;-56
2023/09/01 02:37:49;;;;;;;11.05;6.65;;;12.20;99.90;;;;;;5061288;28;20048;-56
2023/09/01 02:40:15;;;;;;;9.93;6.00;;;12.20;99.90;;;;;;5060116;28;20048;-56
2023/09/01 02:42:41;;;;;;;10.65;6.57;;;12.20;99.90;;;;;;5079498;28;20171;-56
2023/09/01 02:45:11;;;;;;;13.32;6.45;;;12.20;99.90;;;;;;5079727;28;20535;-56
2023/09/01 02:47:36;;;;;;;8.43;5.90;;;12.20;99.90;;;;;;5076986;28;20135;-56
2023/09/01 02:50:04;;;;;;;8.48;6.55;;;12.10;99.90;;;;;;5059633;28;20045;-56
2023/09/01 02:52:30;;;;;;;10.07;6.25;;;12.10;99.90;;;;;;5076934;28;20040;-57
2023/09/01 02:54:56;;;;;;;11.93;6.10;;;12.10;99.90;;;;;;5066139;28;20060;-57
2023/09/01 02:57:23;;;;;;;12.48;7.13;;;12.00;99.90;;;;;;5071857;28;20032;-55
2023/09/01 02:59:49;;;;;;;11.70;6.25;;;12.00;99.90;;;;;;5080659;28;20114;-56
2023/09/01 03:02:15;;;;;;;9.88;6.63;;;12.00;99.90;;;;;;5069316;28;20091;-56
2023/09/01 03:04:41;;;;;;;11.93;6.70;;;12.00;99.90;;;;;;5061663;28;20583;-56
2023/09/01 03:07:07;;;;;;;9.60;6.50;;;12.00;99.90;;;;;;5064816;28;20126;-56
2023/09/01 03:09:33;;;;;;;12.07;6.40;;;11.90;99.90;;;;;;5066428;28;20052;-56
2023/09/01 03:11:58;;;;;;;8.73;5.85;;;11.90;99.90;;;;;;5067874;28;20037;-56
2023/09/01 03:14:24;;;;;;;8.95;6.45;;;11.90;99.90;;;;;;5063485;28;20037;-58
2023/09/01 03:16:50;;;;;;;8.93;5.95;;;11.90;99.90;;;;;;5061903;28;20087;-56
2023/09/01 03:19:16;;;;;;;8.68;6.10;;;11.90;99.90;;;;;;5062443;28;20067;-56
2023/09/01 03:21:42;;;;;;;9.20;6.03;;;11.90;99.90;;;;;;5079373;28;20040;-56
2023/09/01 03:24:08;;;;;;;8.65;6.05;;;11.80;99.90;;;;;;5078857;28;20432;-55
2023/09/01 03:26:33;;;;;;;7.38;6.18;;;11.80;99.90;;;;;;5061607;28;20052;-56
2023/09/01 03:29:00;;;;;;;11.15;6.53;;;11.80;99.90;;;;;;5065083;28;20109;-56
2023/09/01 03:31:26;;;;;;;14.50;6.40;;;11.80;99.90;;;;;;5064291;28;20049;-56
2023/09/01 03:33:51;;;;;;;8.93;5.82;;;11.80;99.90;;;;;;5045753;28;20046;-56
2023/09/01 03:36:17;;;;;;;9.18;6.18;;;11.80;99.90;;;;;;5070622;28;20049;-56
2023/09/01 03:38:43;;;;;;;11.15;6.35;;;11.80;99.90;;;;;;5061822;28;20056;-56
2023/09/01 03:41:08;;;;;;;9.65;6.32;;;11.70;99.90;;;;;;5068448;28;20043;-56
2023/09/01 03:43:34;;;;;;;9.75;6.00;;;11.70;99.90;;;;;;5069869;28;20473;-56
2023/09/01 03:46:01;;;;;;;10.82;5.95;;;11.70;99.90;;;;;;5067225;28;20104;-56
2023/09/01 03:48:27;;;;;;;11.60;6.57;;;11.70;99.90;;;;;;5067069;28;20037;-57
2023/09/01 03:51:06;;;;;;;6.90;5.57;;;11.70;99.90;;;;;;5059876;28;20056;-57
2023/09/01 03:53:32;;;;;;;9.10;6.60;;;11.70;99.90;;;;;;5059203;28;20100;-57
2023/09/01 03:56:00;;;;;;;9.07;6.28;;;11.70;99.90;;;;;;5065343;28;20524;-56
2023/09/01 03:58:26;;;;;;;9.95;6.40;;;11.70;99.90;;;;;;5060345;28;20043;-56
2023/09/01 04:00:52;;;;;;;11.07;6.20;;;11.70;99.90;;;;;;5075783;28;20076;-56
2023/09/01 04:03:17;;;;;;;10.43;5.97;;;11.70;99.90;;;;;;5071450;28;20033;-56
2023/09/01 04:05:43;;;;;;;8.05;6.40;;;11.70;99.90;;;;;;5070158;28;20056;-56
2023/09/01 04:08:08;;;;;;;12.05;6.00;;;11.70;99.90;;;;;;5072918;28;20069;-56
2023/09/01 04:10:34;;;;;;;11.85;6.50;;;11.70;99.90;;;;;;5063681;28;20040;-56
2023/09/01 04:13:00;;;;;;;10.50;6.35;;;11.70;99.90;;;;;;5067528;28;20041;-56
2023/09/01 04:15:25;;;;;;;7.63;5.90;;;11.60;99.90;;;;;;5066499;28;20096;-56
2023/09/01 04:17:51;;;;;;;9.05;5.85;;;11.60;99.90;;;;;;5065964;28;20045;-56
2023/09/01 04:20:17;;;;;;;7.93;5.40;;;11.60;99.90;;;;;;5078007;28;20060;-56
2023/09/01 04:22:42;;;;;;;7.70;6.13;;;11.60;99.90;;;;;;5062180;28;20176;-56
2023/09/01 04:25:08;;;;;;;8.23;6.35;;;11.60;99.90;;;;;;5065757;28;20107;-56
2023/09/01 04:27:34;;;;;;;8.20;6.45;;;11.60;99.90;;;;;;5062905;28;20051;-54
2023/09/01 04:29:59;;;;;;;10.85;6.35;;;11.60;99.90;;;;;;5076541;28;20088;-56
2023/09/01 04:32:25;;;;;;;6.82;5.65;;;11.60;99.90;;;;;;5062692;28;20033;-56
2023/09/01 04:34:51;;;;;;;10.55;6.45;;;11.60;99.90;;;;;;5063738;28;20158;-56
2023/09/01 04:37:16;;;;;;;13.52;6.18;;;11.50;99.90;;;;;;5068036;28;20093;-57
2023/09/01 04:39:42;;;;;;;11.77;6.68;;;11.50;99.90;;;;;;5076560;28;20044;-57
2023/09/01 04:42:08;;;;;;;13.02;6.80;;;11.50;99.90;;;;;;5045104;28;20043;-57
2023/09/01 04:44:33;;;;;;;10.63;6.53;;;11.50;99.90;;;;;;5065842;28;20063;-57
2023/09/01 04:46:59;;;;;;;10.45;6.82;;;11.40;99.90;;;;;;5061909;28;20029;-56
2023/09/01 04:49:26;;;;;;;7.13;6.18;;;11.50;99.90;;;;;;5043560;28;20251;-56
2023/09/01 04:51:52;;;;;;;11.35;6.40;;;11.50;99.90;;;;;;5077114;28;20051;-57
2023/09/01 04:54:18;;;;;;;7.60;6.35;;;11.50;99.90;;;;;;5068809;28;20044;-57
2023/09/01 04:56:43;;;;;;;10.95;6.68;;;11.50;99.90;;;;;;5074538;28;20068;-56
2023/09/01 04:59:09;;;;;;;9.55;6.55;;;11.50;99.90;;;;;;5082083;28;20044;-57
2023/09/01 05:01:35;;;;;;;10.57;6.93;;;11.50;99.90;;;;;;5064831;28;20045;-56
2023/09/01 05:04:00;;;;;;;12.38;6.90;;;11.50;99.90;;;;;;5077265;28;20037;-57
2023/09/01 05:06:26;;;;;;;9.18;6.63;;;11.50;99.90;;;;;;5076869;28;20045;-57
2023/09/01 05:08:52;;;;;;;9.75;6.65;;;11.50;99.90;;;;;;5064205;28;20656;-57
2023/09/01 05:11:17;;;;;;;10.40;6.88;;;11.50;99.90;;;;;;5069190;28;20415;-56
2023/09/01 05:13:43;;;;;;;11.50;7.03;;;11.50;99.90;;;;;;5075562;28;20052;-56
2023/09/01 05:16:10;;;;;;;18.35;7.40;;;11.60;99.90;;;;;;5075321;28;20040;-57
2023/09/01 05:18:36;;;;;;;11.13;7.88;;;11.60;99.90;;;;;;5081332;28;20056;-57
2023/09/01 05:21:02;;;;;;;14.60;8.60;;;11.60;99.90;;;;;;5061920;28;20057;-57
2023/09/01 05:23:31;;;;;;;16.25;10.30;;;11.60;99.90;;;;;;5075468;28;20119;-57
2023/09/01 05:25:57;;;;;;;12.85;10.00;;;11.60;99.90;;;;;;5083045;28;20043;-56
2023/09/01 05:28:23;;;;;;;16.77;10.23;;;11.60;99.90;;;;;;5082037;28;20068;-58
2023/09/01 05:30:48;;;;;;;14.82;10.20;;;11.70;99.90;;;;;;5074009;28;20055;-56
2023/09/01 05:33:14;;;;;;;13.93;10.63;;;11.70;99.90;;;;;;5078964;28;20100;-56
2023/09/01 05:35:40;;;;;;;16.63;11.13;;;11.70;99.90;;;;;;5070086;28;20051;-56
2023/09/01 05:38:05;;;;;;;15.40;10.77;;;11.70;99.90;;;;;;5061011;28;20044;-56
2023/09/01 05:40:31;;;;;;;16.13;11.60;;;11.70;99.90;;;;;;5063834;28;20095;-56
2023/09/01 05:42:57;;;;;;;18.55;13.18;;;11.80;99.90;;;;;;5080404;28;20403;-56
2023/09/01 05:45:22;;;;;;;23.85;13.07;;;11.80;99.90;;;;;;5057053;28;20054;-56
2023/09/01 05:47:48;;;;;;;17.85;13.40;;;11.80;99.90;;;;;;5061326;28;20521;-57
2023/09/01 05:50:14;;;;;;;21.45;14.18;;;11.80;99.90;;;;;;5066510;28;20033;-56
2023/09/01 05:52:39;;;;;;;20.00;13.55;;;11.90;99.90;;;;;;5079747;28;20104;-56
2023/09/01 05:55:05;;;;;;;20.45;13.52;;;12.00;99.90;;;;;;5074683;28;20037;-56
2023/09/01 05:57:31;;;;;;;25.20;14.45;;;12.00;99.90;;;;;;5072369;28;20047;-56
2023/09/01 05:59:58;;;;;;;20.00;14.48;;;12.00;99.90;;;;;;5070935;28;20493;-56
2023/09/01 06:02:23;;;;;;;18.58;14.18;;;12.10;99.90;;;;;;5063377;28;20081;-57
2023/09/01 06:04:49;;;;;;;20.17;14.63;;;12.10;99.90;;;;;;5070316;28;20551;-56
2023/09/01 06:07:15;;;;;;;25.08;15.00;;;12.20;99.90;;;;;;5078060;28;20045;-57
2023/09/01 06:09:40;;;;;;;18.75;14.82;;;12.20;99.90;;;;;;5079981;28;20046;-56
2023/09/01 06:12:06;;;;;;;25.27;15.23;;;12.30;99.90;;;;;;5061084;28;20110;-57
2023/09/01 06:14:32;;;;;;;22.27;15.07;;;12.30;99.90;;;;;;5059168;28;20486;-57
2023/09/01 06:16:58;;;;;;;26.35;16.13;;;12.40;99.90;;;;;;5067525;28;20033;-56
2023/09/01 06:19:23;;;;;;;22.38;15.38;;;12.40;99.90;;;;;;5069046;28;20123;-56
2023/09/01 06:21:49;;;;;;;21.08;15.45;;;12.50;99.90;;;;;;5064017;28;20056;-57
2023/09/01 06:24:15;;;;;;;21.90;15.82;;;12.50;99.90;;;;;;5060300;28;20033;-56
2023/09/01 06:26:40;;;;;;;23.58;15.60;;;12.60;99.90;;;;;;5070686;28;20113;-56
2023/09/01 06:29:06;;;;;;;24.08;15.85;;;12.60;99.90;;;;;;5073924;28;20044;-56
2023/09/01 06:31:32;;;;;;;19.15;14.50;;;12.70;99.90;;;;;;5059190;28;20062;-56
2023/09/01 06:33:57;;;;;;;27.63;16.17;;;12.70;99.90;;;;;;5055673;28;20398;-56
2023/09/01 06:36:23;;;;;;;20.23;15.85;;;12.70;99.90;;;;;;5059924;28;20044;-57
2023/09/01 06:38:49;;;;;;;19.30;14.13;;;12.80;99.90;;;;;;5059772;28;20501;-57
2023/09/01 06:41:14;;;;;;;22.00;15.43;;;12.90;99.90;;;;;;5064040;28;20037;-57
2023/09/01 06:43:41;;;;;;;23.30;14.88;;;12.90;99.90;;;;;;5063695;28;20040;-56
2023/09/01 06:46:06;;;;;;;22.98;15.13;;;13.00;99.90;;;;;;5059643;28;20051;-56
2023/09/01 06:48:32;;;;;;;19.75;15.18;;;13.00;99.90;;;;;;5059692;28;20091;-57
2023/09/01 06:51:02;;;;;;;23.25;15.85;;;13.10;99.90;;;;;;5067703;28;20052;-56
2023/09/01 06:53:27;;;;;;;21.67;15.85;;;13.10;99.90;;;;;;5075337;28;20056;-56
2023/09/01 06:55:53;;;;;;;22.42;16.42;;;13.20;99.90;;;;;;5064030;28;20045;-56
2023/09/01 06:58:19;;;;;;;25.58;16.92;;;13.20;99.90;;;;;;5058631;28;20045;-56
2023/09/01 07:00:45;;;;;;;21.50;15.75;;;13.30;99.90;;;;;;5062816;28;20060;-57
2023/09/01 07:03:10;;;;;;;28.02;16.75;;;13.40;99.90;;;;;;5071669;28;20079;-57
2023/09/01 07:05:36;;;;;;;23.55;15.98;;;13.50;99.90;;;;;;5067030;28;20094;-56
2023/09/01 07:08:02;;;;;;;23.30;16.33;;;13.60;99.90;;;;;;5063435;28;20048;-56
2023/09/01 07:10:28;;;;;;;23.77;16.58;;;13.60;99.90;;;;;;5059276;28;20080;-57
2023/09/01 07:12:54;;;;;;;20.65;16.48;;;13.60;99.90;;;;;;5065074;28;20053;-57
2023/09/01 07:15:21;;;;;;;20.50;17.00;;;13.70;99.90;;;;;;5065282;28;20053;-56
2023/09/01 07:17:47;;;;;;;22.17;16.35;;;13.80;99.90;;;;;;5051855;28;20053;-57
2023/09/01 07:20:13;;;;;;;23.20;16.55;;;13.80;99.90;;;;;;5067996;28;20037;-57
2023/09/01 07:22:39;;;;;;;23.90;17.10;;;13.90;99.90;;;;;;5074672;28;20037;-57
2023/09/01 07:25:09;;;;;;;21.58;15.90;;;13.90;99.90;;;;;;5060405;28;20095;-57
2023/09/01 07:27:35;;;;;;;23.23;17.02;;;13.90;99.90;;;;;;5057642;28;20123;-56
2023/09/01 07:30:01;;;;;;;22.42;17.35;;;14.00;99.90;;;;;;5072443;28;20044;-56
2023/09/01 07:32:27;;;;;;;25.75;17.63;;;14.00;99.90;;;;;;5072509;28;20122;-56
2023/09/01 07:34:52;;;;;;;27.15;16.95;;;14.10;99.90;;;;;;5060217;28;20033;-57
2023/09/01 07:37:18;;;;;;;23.52;17.85;;;14.10;99.90;;;;;;5062187;28;20069;-56
2023/09/01 07:39:44;;;;;;;24.05;16.45;;;14.10;99.90;;;;;;5065252;28;20098;-56
2023/09/01 07:42:10;;;;;;;25.23;18.70;;;14.10;99.90;;;;;;5061455;28;20041;-57
2023/09/01 07:44:36;;;;;;;31.50;18.48;;;14.10;99.90;;;;;;5070043;28;20029;-56
2023/09/01 07:47:02;;;;;;;23.38;18.00;;;14.20;99.90;;;;;;5059729;28;20051;-56
2023/09/01 07:49:28;;;;;;;24.77;18.58;;;14.20;99.90;;;;;;5059935;28;20036;-56
2023/09/01 07:51:53;;;;;;;26.10;18.38;;;14.30;99.90;;;;;;5058827;28;20041;-56
2023/09/01 07:54:19;;;;;;;27.95;18.77;;;14.30;99.90;;;;;;5071855;28;20032;-56
2023/09/01 07:56:45;;;;;;;24.42;18.15;;;14.40;99.90;;;;;;5079533;28;20036;-56
2023/09/01 07:59:10;;;;;;;27.92;19.08;;;14.40;99.90;;;;;;5061457;28;20043;-56
2023/09/01 08:01:36;;;;;;;28.38;19.88;;;14.50;99.90;;;;;;5079073;28;20068;-54
2023/09/01 08:04:02;;;;;;;27.20;19.63;;;14.50;99.90;;;;;;5079811;28;20408;-57
2023/09/01 08:06:31;;;;;;;29.55;19.67;;;14.70;99.90;;;;;;5061970;28;20055;-56
2023/09/01 08:08:57;;;;;;;28.33;18.73;;;14.70;99.90;;;;;;5070148;28;20053;-57
2023/09/01 08:11:23;;;;;;;26.67;19.58;;;14.80;99.90;;;;;;5067233;28;20151;-57
2023/09/01 08:13:49;;;;;;;27.38;19.15;;;14.80;99.90;;;;;;5073246;28;20037;-57
2023/09/01 08:16:16;;;;;;;25.73;16.88;;;14.90;99.90;;;;;;5063003;28;20091;-57
2023/09/01 08:18:42;;;;;;;21.73;17.27;;;15.00;99.90;;;;;;5066932;28;20108;-57
2023/09/01 08:21:08;;;;;;;27.00;17.92;;;15.00;99.90;;;;;;5059788;28;20106;-57
2023/09/01 08:23:33;;;;;;;25.70;17.05;;;15.10;99.90;;;;;;5076443;28;20055;-57
2023/09/01 08:26:04;;;;;;;23.48;17.75;;;15.20;99.90;;;;;;5077708;28;20076;-57
2023/09/01 08:28:31;;;;;;;21.75;16.88;;;15.20;99.90;;;;;;5077029;28;20369;-57
2023/09/01 08:31:01;;;;;;;27.35;17.25;;;15.30;99.90;;;;;;5062859;28;20123;-57
2023/09/01 08:33:27;;;;;;;28.10;17.40;;;15.40;99.90;;;;;;5053878;28;20666;-58
2023/09/01 08:35:52;;;;;;;26.33;16.73;;;15.50;99.90;;;;;;5070963;28;20068;-57
2023/09/01 08:38:18;;;;;;;26.50;16.85;;;15.50;99.90;;;;;;5064738;28;20493;-59
2023/09/01 08:40:44;;;;;;;19.95;15.07;;;15.60;99.90;;;;;;5053093;28;20053;-58
2023/09/01 08:43:11;;;;;;;19.50;15.60;;;15.60;99.90;;;;;;5055334;28;20653;-59
2023/09/01 08:45:39;;;;;;;24.02;16.20;;;15.70;99.90;;;;;;5058365;28;20045;-57
2023/09/01 08:48:04;;;;;;;22.80;16.67;;;15.70;99.90;;;;;;5054908;28;20110;-58
2023/09/01 08:50:30;;;;;;;24.70;15.45;;;15.80;99.90;;;;;;5060710;28;20044;-58
2023/09/01 08:52:59;;;;;;;22.52;16.52;;;15.80;99.90;;;;;;5061518;28;20075;-59
2023/09/01 08:55:25;;;;;;;22.05;15.68;;;15.90;99.90;;;;;;5066742;28;20048;-59
2023/09/01 08:57:51;;;;;;;22.48;14.70;;;16.00;99.90;;;;;;5068581;28;20041;-59
2023/09/01 09:00:17;;;;;;;21.58;13.85;;;16.00;99.90;;;;;;5066969;28;20040;-59
2023/09/01 09:02:44;;;;;;;22.20;14.23;;;16.10;99.90;;;;;;5072353;28;20107;-59
2023/09/01 09:05:13;;;;;;;22.55;13.60;;;16.10;99.90;;;;;;5061395;28;20041;-58
2023/09/01 09:07:39;;;;;;;22.52;13.20;;;16.30;99.90;;;;;;5067118;28;20052;-59
2023/09/01 09:10:06;;;;;;;20.35;13.75;;;16.30;99.90;;;;;;5064678;28;20053;-58
2023/09/01 09:12:44;;;;;;;23.02;13.80;;;16.40;99.90;;;;;;5069893;28;20033;-58
2023/09/01 09:15:14;;;;;;;20.88;13.80;;;16.50;99.90;;;;;;5060954;28;20044;-54
2023/09/01 09:17:44;;;;;;;22.88;14.32;;;16.50;99.90;;;;;;5067293;28;20037;-58
2023/09/01 09:20:17;;;;;;;24.75;14.20;;;16.60;99.90;;;;;;5069099;28;20064;-58
2023/09/01 09:22:49;;;;;;;22.27;11.80;;;16.70;99.90;;;;;;5060116;28;20037;-58
2023/09/01 09:25:28;;;;;;;21.08;12.10;;;16.70;99.90;;;;;;5064742;28;20072;-58
2023/09/01 09:27:56;;;;;;;23.55;11.40;;;16.80;99.90;;;;;;5064074;28;20049;-58
2023/09/01 09:30:25;;;;;;;20.80;11.45;;;16.90;99.90;;;;;;5064840;28;20084;-58
2023/09/01 09:33:07;;;;;;;18.23;9.98;;;16.90;99.90;;;;;;5059641;28;20041;-59
2023/09/01 09:35:34;;;;;;;20.70;11.23;;;16.90;99.90;;;;;;5058437;28;20036;-59
2023/09/01 09:38:01;;;;;;;18.88;11.30;;;17.00;99.90;;;;;;5071065;28;20048;-58
2023/09/01 09:40:27;;;;;;;17.08;10.18;;;17.00;99.90;;;;;;5069447;28;20062;-58
2023/09/01 09:42:58;;;;;;;18.38;10.10;;;17.00;99.90;;;;;;5068820;28;20060;-58
2023/09/01 09:45:29;;;;;;;19.40;10.30;;;17.10;99.90;;;;;;5069523;28;20049;-59
2023/09/01 09:47:57;;;;;;;18.00;10.45;;;17.10;99.90;;;;;;5068544;28;20040;-58
2023/09/01 09:50:24;;;;;;;16.13;10.65;;;17.20;99.90;;;;;;5062317;28;20055;-58
2023/09/01 09:52:59;;;;;;;12.52;6.47;;;17.30;99.90;;;;;;5060310;28;20071;-59
2023/09/01 09:55:27;;;;;;;18.30;7.03;;;17.30;99.90;;;;;;5063518;28;20062;-58
2023/09/01 09:58:02;;;;;;;14.52;7.82;;;17.30;99.90;;;;;;5059366;28;20033;-59
2023/09/01 10:00:30;;;;;;;16.52;7.78;;;17.30;99.90;;;;;;5058632;28;20036;-59
2023/09/01 10:03:03;;;;;;;14.30;7.63;;;17.20;99.90;;;;;;5064274;28;20051;-59
2023/09/01 10:05:32;;;;;;;15.35;7.95;;;17.20;99.90;;;;;;5061809;28;20045;-59
2023/09/01 10:08:02;;;;;;;11.25;6.22;;;17.20;99.90;;;;;;5068830;28;20096;-58
2023/09/01 10:10:30;;;;;;;14.85;7.03;;;17.30;99.90;;;;;;5063685;28;20386;-59
2023/09/01 10:12:55;;;;;;;15.38;7.22;;;17.30;99.90;;;;;;5063562;28;20036;-57
2023/09/01 10:15:23;;;;;;;14.52;7.05;;;17.40;99.90;;;;;;5066356;28;20117;-58
2023/09/01 10:17:50;;;;;;;15.02;7.78;;;17.40;99.90;;;;;;5062728;28;20498;-58
2023/09/01 10:20:16;;;;;;;17.45;7.68;;;17.40;99.90;;;;;;5065690;28;20045;-58
2023/09/01 10:22:42;;;;;;;17.85;8.10;;;17.40;99.90;;;;;;5066808;28;20037;-56
2023/09/01 10:25:18;;;;;;;17.10;8.45;;;17.40;99.90;;;;;;5056148;28;20033;-58
2023/09/01 10:28:06;;;;;;;15.07;7.82;;;17.40;99.90;;;;;;5068631;28;20507;-58
2023/09/01 10:30:36;;;;;;;14.35;8.30;;;17.40;99.90;;;;;;5058343;28;20048;-58
2023/09/01 10:33:09;;;;;;;12.68;7.30;;;17.40;99.90;;;;;;5070472;28;20029;-59
2023/09/01 10:35:44;;;;;;;17.58;7.82;;;17.40;99.90;;;;;;5071553;28;20048;-60
2023/09/01 10:38:15;;;;;;;12.20;7.13;;;17.40;99.90;;;;;;5069735;28;20128;-58
2023/09/01 10:40:46;;;;;;;12.55;6.45;;;17.40;99.90;;;;;;5050973;28;20100;-59
2023/09/01 10:43:12;;;;;;;15.30;6.60;;;17.50;99.90;;;;;;5069578;28;20054;-58
2023/09/01 10:45:39;;;;;;;13.30;6.57;;;17.50;99.90;;;;;;5058757;28;20083;-59
2023/09/01 10:48:11;;;;;;;13.98;6.70;;;17.50;99.90;;;;;;5059227;28;20036;-58
2023/09/01 10:50:41;;;;;;;14.60;6.80;;;17.60;99.90;;;;;;5059893;28;20116;-58
2023/09/01 10:53:29;;;;;;;12.10;6.47;;;17.60;99.90;;;;;;5060036;28;20041;-58
2023/09/01 10:56:11;;;;;;;12.23;6.55;;;17.60;99.90;;;;;;5069683;28;20084;-58
2023/09/01 10:58:48;;;;;;;14.00;6.50;;;17.60;99.90;;;;;;5059354;28;20051;-56
2023/09/01 11:01:29;;;;;;;13.38;6.40;;;17.60;99.90;;;;;;5062969;28;20261;-58
2023/09/01 11:03:56;;;;;;;11.07;6.53;;;17.70;99.90;;;;;;5062185;28;20040;-59
2023/09/01 11:06:22;;;;;;;13.82;6.82;;;17.70;99.90;;;;;;5072267;28;20076;-59
2023/09/01 11:09:01;;;;;;;16.50;7.30;;;17.80;99.90;;;;;;5067409;28;20059;-59
2023/09/01 11:11:27;;;;;;;13.60;6.57;;;17.80;99.90;;;;;;5070291;28;20056;-59
2023/09/01 11:13:58;;;;;;;14.52;6.82;;;17.90;99.90;;;;;;5063708;28;20041;-59
2023/09/01 11:16:24;;;;;;;12.35;7.13;;;17.80;99.90;;;;;;5059432;28;20101;-58
2023/09/01 11:19:03;;;;;;;14.65;7.70;;;17.90;99.90;;;;;;5061316;28;20078;-59
2023/09/01 11:21:29;;;;;;;13.48;7.45;;;17.90;99.90;;;;;;5064592;28;20041;-58
2023/09/01 11:24:03;;;;;;;10.93;6.60;;;18.00;99.90;;;;;;5066155;28;20075;-57
2023/09/01 11:26:29;;;;;;;15.40;7.30;;;18.10;99.90;;;;;;5066072;28;20044;-58
2023/09/01 11:28:55;;;;;;;8.82;6.45;;;18.10;99.90;;;;;;5062752;28;20042;-57
2023/09/01 11:31:22;;;;;;;13.73;6.78;;;18.10;99.90;;;;;;5065259;28;20092;-59
2023/09/01 11:33:54;;;;;;;13.15;7.80;;;18.10;99.90;;;;;;5068583;28;20071;-59
2023/09/01 11:36:20;;;;;;;13.40;6.80;;;18.10;99.90;;;;;;5045432;28;20052;-59
2023/09/01 11:38:46;;;;;;;17.17;7.80;;;18.20;99.90;;;;;;5076107;28;20127;-59
2023/09/01 11:41:18;;;;;;;13.13;8.15;;;18.10;99.90;;;;;;5063122;28;20052;-59
2023/09/01 11:43:44;;;;;;;14.55;8.18;;;18.10;99.90;;;;;;5064993;28;20405;-59
2023/09/01 11:46:10;;;;;;;15.75;7.30;;;18.20;99.90;;;;;;5070483;28;20037;-59
2023/09/01 11:48:36;;;;;;;14.57;8.05;;;18.20;99.90;;;;;;5061710;28;20151;-59
2023/09/01 11:51:04;;;;;;;13.45;7.90;;;18.30;99.90;;;;;;5066832;28;20048;-59
2023/09/01 11:53:34;;;;;;;15.57;8.38;;;18.40;99.90;;;;;;5071298;28;20044;-59
2023/09/01 11:56:16;;;;;;;15.25;8.48;;;18.50;99.90;;;;;;5062207;28;20040;-59
2023/09/01 11:58:41;;;;;;;15.88;8.45;;;18.60;99.90;;;;;;5061135;28;20037;-58
2023/09/01 12:01:11;;;;;;;16.40;9.55;;;18.60;99.90;;;;;;5061269;28;20036;-59
2023/09/01 12:03:40;;;;;;;13.55;8.60;;;18.70;99.90;;;;;;5060403;28;20044;-59
2023/09/01 12:06:20;;;;;;;13.73;7.55;;;18.80;99.90;;;;;;5059775;28;20059;-59
2023/09/01 12:08:46;;;;;;;13.25;7.78;;;18.90;99.90;;;;;;5060565;28;20040;-59
2023/09/01 12:11:13;;;;;;;11.65;7.78;;;18.80;99.90;;;;;;5060960;28;20052;-59
2023/09/01 12:13:39;;;;;;;12.10;7.60;;;18.90;99.90;;;;;;5063355;28;20049;-59
2023/09/01 12:16:05;;;;;;;12.85;7.30;;;18.90;99.90;;;;;;5064024;28;20781;-58
2023/09/01 12:18:41;;;;;;;12.18;7.55;;;19.00;99.90;;;;;;5057103;28;20088;-58
2023/09/01 12:21:09;;;;;;;15.95;8.20;;;19.10;99.90;;;;;;5061753;28;20061;-59
2023/09/01 12:23:37;;;;;;;13.95;7.82;;;19.10;99.90;;;;;;5071234;28;20052;-59
2023/09/01 12:26:03;;;;;;;16.38;8.27;;;19.20;99.90;;;;;;5064348;28;20045;-58
2023/09/01 12:28:30;;;;;;;13.27;7.63;;;19.20;99.90;;;;;;5066356;28;20080;-59
2023/09/01 12:30:57;;;;;;;14.65;7.25;;;19.20;99.90;;;;;;5069896;28;20051;-59
2023/09/01 12:33:23;;;;;;;11.05;7.00;;;19.30;99.90;;;;;;5064794;28;20041;-58
2023/09/01 12:35:53;;;;;;;13.07;7.32;;;19.30;99.90;;;;;;5063851;28;20056;-59
2023/09/01 12:38:19;;;;;;;11.27;7.15;;;19.40;99.90;;;;;;5070716;28;20154;-58